Lansdowne House Airport
CYLH : now visible

Airfield :











YOU CAN JOIN US ON...

 
LOGIN :

Register | Disclaimer

   EN    FR    IT 

 









Legend :    VFR   Marginal VFR   IFR   Intensive IFR   Very Intensive IFR
Visi :
Ceiling :
>= 8 km
>= 3000ft
5 to 8 km
1000 to 3000 ft
1500m to 5 km
500 to 1000 ft
800 to 1500m
200 to 500 ft
< 800m
< 200 ft
Symbols :   Thunderstorms  Fog  Heavy snow  Heavy precipitations  Wind > 20 kt







- Airport Elevation : 834 ft
- IATA code : YLH


CYLH - Lansdowne House

CURRENT METAR :
  • 162100Z AUTO VRB03KT 9SM CLR 24/13 A3000 RMK SLP165 DENSITY ALT 1900FT

EXPIRED METARs :
  • 162000Z AUTO 30005KT 180V320 9SM CLR 24/14 A3000 RMK SLP167 DENSITY ALT 1900FT
  • 161900Z AUTO 23003KT 190V330 9SM CLR 23/15 A3001 RMK SLP168 DENSITY ALT 1800FT

TAF N/A
No reported NOTAMs for that airfield.



MET'MAP, your aeronautical weather chart ! - Copyright ORBIFLY December 2007 - Disclaimer

ORBIFLY MET'MAP TEAM :

Programming & Development : Alexandra Zaïnal
Concept & Development : Baudouin d'Aumeries
Co-Development & Prog : Marc-Olivier Méhu
Technical & hardware support : Manuel Goepfert

Contact : metmap@orbifly.com




SOURCES & CREDITS :

   NOAA       Earth
Advisory